Time;durP1;ratioP1;P1;durP2;ratioP2;P2;SDS_P1;SDS_P2;PMS_P1;PMS_P2;Temp;Humidity;BMP_temperature;BMP_pressure;BME280_temperature;BME280_humidity;BME280_pressure;Samples;Min_cycle;Max_cycle;Signal;HPM_P1;HPM_P2
2022/05/13 00:00:43;;;;;;;8.23;7.43;;;17.90;99.90;;;;;;5011430;28;20222;-87
2022/05/13 00:03:09;;;;;;;7.85;7.07;;;17.90;99.90;;;;;;4995532;28;20310;-87
2022/05/13 00:05:35;;;;;;;9.00;7.70;;;17.90;99.90;;;;;;4995257;28;20202;-87
2022/05/13 00:08:01;;;;;;;8.90;8.00;;;17.90;99.90;;;;;;4995127;28;20281;-87
2022/05/13 00:10:27;;;;;;;8.07;7.28;;;17.90;99.90;;;;;;4994976;28;20190;-87
2022/05/13 00:12:53;;;;;;;8.30;6.85;;;17.90;99.90;;;;;;5011657;28;20191;-87
2022/05/13 00:15:24;;;;;;;7.97;7.18;;;17.90;99.90;;;;;;4995158;28;20285;-87
2022/05/13 00:17:53;;;;;;;9.20;7.78;;;17.90;99.90;;;;;;5044577;28;20168;-88
2022/05/13 00:20:20;;;;;;;8.68;6.93;;;17.90;99.90;;;;;;4994949;28;20179;-88
2022/05/13 00:22:54;;;;;;;9.18;7.45;;;17.80;99.90;;;;;;4995246;28;20211;-87
2022/05/13 00:25:24;;;;;;;12.85;8.43;;;17.80;99.90;;;;;;4995270;28;20205;-87
2022/05/13 00:27:50;;;;;;;8.50;7.68;;;17.80;99.90;;;;;;4995094;28;20202;-87
2022/05/13 00:30:17;;;;;;;8.70;7.90;;;17.80;99.90;;;;;;4995069;28;20270;-86
2022/05/13 00:32:48;;;;;;;8.25;7.40;;;17.80;99.90;;;;;;4995150;28;20179;-87
2022/05/13 00:35:15;;;;;;;9.70;8.48;;;17.80;99.90;;;;;;4994900;28;20210;-87
2022/05/13 00:37:41;;;;;;;8.48;7.72;;;17.80;99.90;;;;;;4995213;28;20184;-87
2022/05/13 00:40:09;;;;;;;8.75;7.85;;;17.80;99.90;;;;;;4994973;28;20190;-87
2022/05/13 00:42:35;;;;;;;9.20;8.30;;;17.80;99.90;;;;;;4994786;28;20310;-87
2022/05/13 00:45:01;;;;;;;8.80;7.80;;;17.80;99.90;;;;;;4997718;28;20286;-87
2022/05/13 00:47:27;;;;;;;8.80;7.90;;;17.80;99.90;;;;;;4998424;28;20186;-87
2022/05/13 00:49:59;;;;;;;8.90;7.82;;;17.70;99.90;;;;;;4998546;28;20175;-87
2022/05/13 00:52:26;;;;;;;8.38;7.47;;;17.70;99.90;;;;;;4998871;28;20175;-87
2022/05/13 00:54:53;;;;;;;9.63;8.63;;;17.70;99.90;;;;;;4998500;28;20211;-87
2022/05/13 00:57:21;;;;;;;7.95;7.15;;;17.70;99.90;;;;;;4998609;28;20183;-87
2022/05/13 00:59:49;;;;;;;8.35;7.55;;;17.60;99.90;;;;;;4997692;28;20179;-87
2022/05/13 01:02:17;;;;;;;8.80;7.95;;;17.60;99.90;;;;;;4998307;28;20206;-87
2022/05/13 01:04:43;;;;;;;9.63;7.70;;;17.50;99.90;;;;;;5015157;28;20187;-87
2022/05/13 01:07:21;;;;;;;8.73;7.93;;;17.50;99.90;;;;;;4996897;28;20228;-87
2022/05/13 01:09:51;;;;;;;8.98;7.55;;;17.60;99.90;;;;;;4996804;28;20185;-87
2022/05/13 01:12:22;;;;;;;9.45;8.50;;;17.50;99.90;;;;;;4997876;28;20195;-88
2022/05/13 01:15:01;;;;;;;9.20;7.78;;;17.50;99.90;;;;;;4997717;28;20171;-87
2022/05/13 01:20:27;;;;;;;9.95;8.95;;;17.50;99.90;;;;;;5014158;28;20175;-88
2022/05/13 01:23:00;;;;;;;9.67;8.33;;;17.50;99.90;;;;;;4997532;28;20199;-87
2022/05/13 01:25:29;;;;;;;9.63;8.73;;;17.40;99.90;;;;;;4997422;28;20253;-87
2022/05/13 01:28:04;;;;;;;10.15;9.15;;;17.50;99.90;;;;;;4997786;28;20185;-87
2022/05/13 01:30:30;;;;;;;9.23;8.27;;;17.40;99.90;;;;;;4997173;28;20167;-87
2022/05/13 01:32:56;;;;;;;9.40;8.40;;;17.40;99.90;;;;;;4996928;28;20183;-87
2022/05/13 01:35:23;;;;;;;9.77;8.75;;;17.40;99.90;;;;;;4997341;28;20199;-87
2022/05/13 01:37:49;;;;;;;9.73;8.90;;;17.40;99.90;;;;;;4997068;28;20222;-87
2022/05/13 01:40:16;;;;;;;10.23;8.93;;;17.30;99.90;;;;;;4996832;28;20191;-87
2022/05/13 01:42:42;;;;;;;10.05;9.05;;;17.30;99.90;;;;;;4997074;28;20218;-87
2022/05/13 01:45:09;;;;;;;9.80;8.68;;;17.30;99.90;;;;;;4996020;28;20206;-87
2022/05/13 01:47:36;;;;;;;8.73;7.93;;;17.10;99.90;;;;;;4997043;28;20229;-87
2022/05/13 01:50:03;;;;;;;9.63;8.73;;;17.10;99.90;;;;;;4997392;28;20266;-87
2022/05/13 01:52:29;;;;;;;10.17;8.83;;;17.00;99.90;;;;;;4997127;28;20207;-87
2022/05/13 01:54:54;;;;;;;10.57;8.85;;;17.00;99.90;;;;;;4995942;28;20269;-87
2022/05/13 01:57:20;;;;;;;9.90;9.00;;;17.00;99.90;;;;;;4996933;28;20326;-87
2022/05/13 01:59:46;;;;;;;9.90;9.00;;;17.00;99.90;;;;;;5013252;28;20217;-87
2022/05/13 02:02:12;;;;;;;9.70;8.90;;;17.00;99.90;;;;;;4996993;28;20211;-87
2022/05/13 02:04:38;;;;;;;9.47;8.57;;;17.00;99.90;;;;;;4996847;28;20194;-87
2022/05/13 02:07:04;;;;;;;9.65;8.77;;;17.10;99.90;;;;;;4996656;28;20249;-87
2022/05/13 02:09:31;;;;;;;9.13;8.25;;;17.10;99.90;;;;;;4995567;28;20202;-87
2022/05/13 02:11:57;;;;;;;8.80;7.82;;;17.20;99.90;;;;;;4997115;28;20179;-87
2022/05/13 02:14:23;;;;;;;9.48;7.93;;;17.20;99.90;;;;;;4997446;28;20186;-87
2022/05/13 02:16:49;;;;;;;9.50;8.70;;;17.30;99.90;;;;;;5013280;28;20204;-87
2022/05/13 02:19:17;;;;;;;9.18;8.27;;;17.30;99.90;;;;;;4997234;28;20248;-87
2022/05/13 02:21:43;;;;;;;10.20;8.32;;;17.30;99.90;;;;;;4996930;28;20213;-88
2022/05/13 02:24:09;;;;;;;9.55;8.65;;;17.40;99.90;;;;;;4996828;28;20171;-87
2022/05/13 02:26:35;;;;;;;9.05;8.07;;;17.40;99.90;;;;;;5013200;28;20258;-87
2022/05/13 02:29:02;;;;;;;9.38;8.32;;;17.40;99.90;;;;;;4997114;28;20219;-87
2022/05/13 02:31:31;;;;;;;9.40;8.52;;;17.40;99.90;;;;;;4996837;28;20179;-87
2022/05/13 02:33:58;;;;;;;9.15;8.27;;;17.40;99.90;;;;;;4996919;28;20171;-87
2022/05/13 02:36:25;;;;;;;11.70;7.72;;;17.40;99.90;;;;;;4996709;28;20198;-87
2022/05/13 02:38:51;;;;;;;8.45;7.75;;;17.30;99.90;;;;;;4996843;28;20234;-88
2022/05/13 02:41:17;;;;;;;8.27;7.55;;;17.30;99.90;;;;;;4996902;28;20187;-87
2022/05/13 02:43:48;;;;;;;9.10;8.25;;;17.30;99.90;;;;;;4996866;28;20204;-87
2022/05/13 02:46:28;;;;;;;9.43;8.38;;;17.30;99.90;;;;;;5013683;28;20231;-87
2022/05/13 02:48:55;;;;;;;8.73;7.93;;;17.30;99.90;;;;;;4996335;28;20245;-88
2022/05/13 02:51:22;;;;;;;10.68;8.40;;;17.30;99.90;;;;;;5005066;28;20187;-88
2022/05/13 02:53:48;;;;;;;9.68;8.68;;;17.30;99.90;;;;;;5015096;28;20205;-87
2022/05/13 02:56:14;;;;;;;10.48;9.50;;;17.30;99.90;;;;;;5015961;28;20249;-87
2022/05/13 02:58:41;;;;;;;9.68;8.70;;;17.30;99.90;;;;;;5016249;28;20185;-88
2022/05/13 03:01:09;;;;;;;10.70;9.63;;;17.20;99.90;;;;;;5016101;28;20209;-87
2022/05/13 03:03:38;;;;;;;10.40;8.65;;;17.20;99.90;;;;;;5016046;28;20187;-88
2022/05/13 03:06:04;;;;;;;9.68;8.68;;;17.20;99.90;;;;;;5015469;28;20404;-87
2022/05/13 03:08:32;;;;;;;9.30;8.50;;;17.10;99.90;;;;;;5015637;28;20220;-87
2022/05/13 03:11:09;;;;;;;9.07;8.25;;;17.10;99.90;;;;;;5015343;28;20175;-88
2022/05/13 03:13:36;;;;;;;10.63;8.90;;;17.20;99.90;;;;;;5015813;28;20171;-87
2022/05/13 03:16:05;;;;;;;8.63;7.72;;;17.10;99.90;;;;;;5015977;28;20281;-87
2022/05/13 03:18:31;;;;;;;15.50;8.85;;;17.10;99.90;;;;;;5015726;28;20186;-87
2022/05/13 03:20:57;;;;;;;10.40;8.98;;;17.10;99.90;;;;;;5015536;28;20185;-87
2022/05/13 03:23:23;;;;;;;9.83;8.40;;;17.10;99.90;;;;;;5015987;28;20206;-87
2022/05/13 03:25:49;;;;;;;9.00;8.10;;;17.10;99.90;;;;;;5015814;28;20197;-87
2022/05/13 03:28:14;;;;;;;10.10;8.97;;;17.20;99.90;;;;;;5015838;28;20171;-87
2022/05/13 03:30:40;;;;;;;10.13;9.13;;;17.10;99.90;;;;;;5015499;28;20265;-87
2022/05/13 03:33:23;;;;;;;10.27;9.13;;;17.20;99.90;;;;;;5015230;28;20273;-87
2022/05/13 03:35:49;;;;;;;10.03;9.07;;;17.20;99.90;;;;;;5015211;28;20206;-87
2022/05/13 03:38:15;;;;;;;10.20;9.18;;;17.20;99.90;;;;;;5014792;28;20187;-87
2022/05/13 03:40:41;;;;;;;10.65;9.57;;;17.20;99.90;;;;;;5013767;28;20181;-87
2022/05/13 03:43:07;;;;;;;9.82;8.95;;;17.20;99.90;;;;;;4995429;28;20238;-87
2022/05/13 03:45:34;;;;;;;10.00;9.10;;;17.20;99.90;;;;;;5011447;28;20199;-87
2022/05/13 03:48:00;;;;;;;9.63;8.70;;;17.20;99.90;;;;;;4995629;28;20167;-87
2022/05/13 03:50:27;;;;;;;10.55;8.85;;;17.20;99.90;;;;;;4995592;28;20225;-87
2022/05/13 03:52:53;;;;;;;9.57;8.55;;;17.20;99.90;;;;;;4995299;28;20714;-87
2022/05/13 03:55:20;;;;;;;11.57;8.77;;;17.10;99.90;;;;;;4995223;28;20233;-87
2022/05/13 03:57:45;;;;;;;9.10;8.30;;;17.10;99.90;;;;;;4995525;28;20214;-87
2022/05/13 04:00:15;;;;;;;10.37;9.37;;;17.10;99.90;;;;;;5044620;28;20210;-87
2022/05/13 04:02:41;;;;;;;9.35;8.52;;;17.10;99.90;;;;;;4994695;28;20253;-88
2022/05/13 04:10:38;;;;;;;12.10;8.93;;;17.20;99.90;;;;;;5010866;28;20175;-87
2022/05/13 04:16:04;;;;;;;10.27;9.32;;;17.20;99.90;;;;;;5011314;28;20203;-87
2022/05/13 04:18:31;;;;;;;9.57;8.68;;;17.20;99.90;;;;;;4995826;28;20199;-87
2022/05/13 04:20:57;;;;;;;9.57;8.70;;;17.20;99.90;;;;;;4998634;28;20277;-87
2022/05/13 04:23:23;;;;;;;10.07;9.17;;;17.20;99.90;;;;;;4999052;28;20207;-87
2022/05/13 04:25:49;;;;;;;9.90;8.93;;;17.20;99.90;;;;;;4998841;28;20711;-87
2022/05/13 04:28:16;;;;;;;12.80;11.60;;;17.20;99.90;;;;;;4998685;28;20183;-87
2022/05/13 04:30:42;;;;;;;10.00;9.00;;;17.20;99.90;;;;;;5014799;28;20233;-87
2022/05/13 04:33:12;;;;;;;10.35;9.32;;;17.20;99.90;;;;;;4998898;28;20239;-87
2022/05/13 04:35:38;;;;;;;9.90;8.90;;;17.10;99.90;;;;;;4998309;28;20195;-87
2022/05/13 04:38:04;;;;;;;9.73;8.65;;;17.10;99.90;;;;;;4998562;28;20206;-87
2022/05/13 04:40:30;;;;;;;9.50;8.60;;;17.10;99.90;;;;;;4998463;28;20190;-87
2022/05/13 04:42:57;;;;;;;9.73;8.80;;;17.10;99.90;;;;;;4998399;28;20647;-87
2022/05/13 04:45:27;;;;;;;12.25;9.25;;;17.10;99.90;;;;;;4998233;28;20546;-87
2022/05/13 04:48:16;;;;;;;8.80;8.00;;;17.10;99.90;;;;;;4998672;28;20183;-87
2022/05/13 04:50:53;;;;;;;8.60;7.80;;;17.10;99.90;;;;;;4998036;28;20183;-87
2022/05/13 04:53:29;;;;;;;9.57;8.60;;;17.10;99.90;;;;;;4998192;28;20181;-87
2022/05/13 04:55:57;;;;;;;9.63;8.73;;;17.10;99.90;;;;;;4998410;28;20993;-87
2022/05/13 04:58:23;;;;;;;8.63;7.77;;;17.10;99.90;;;;;;4998274;28;20183;-87
2022/05/13 05:00:55;;;;;;;8.97;7.80;;;17.10;99.90;;;;;;4997331;28;20183;-87
2022/05/13 05:03:24;;;;;;;9.03;7.93;;;17.10;99.90;;;;;;4997945;28;20281;-87
2022/05/13 05:05:50;;;;;;;9.60;8.63;;;17.10;99.90;;;;;;4998173;28;20195;-87
2022/05/13 05:08:16;;;;;;;9.20;8.23;;;17.20;99.90;;;;;;4997459;28;20242;-87
2022/05/13 05:10:44;;;;;;;9.52;8.70;;;17.20;99.90;;;;;;4998042;28;20190;-87
2022/05/13 05:13:26;;;;;;;8.80;8.00;;;17.20;99.90;;;;;;4998314;28;20281;-87
2022/05/13 05:15:53;;;;;;;9.07;8.20;;;17.20;99.90;;;;;;4998168;28;21131;-87
2022/05/13 05:18:19;;;;;;;9.73;8.68;;;17.20;99.90;;;;;;4998587;28;20217;-87
2022/05/13 05:20:46;;;;;;;9.38;8.30;;;17.30;99.90;;;;;;4998335;28;20274;-87
2022/05/13 05:23:18;;;;;;;9.35;8.32;;;17.40;99.90;;;;;;4998566;28;20199;-87
2022/05/13 05:25:45;;;;;;;9.00;8.00;;;17.30;99.90;;;;;;5013468;28;20202;-87
2022/05/13 05:28:11;;;;;;;8.40;7.60;;;17.30;99.90;;;;;;4998354;28;20206;-87
2022/05/13 05:30:38;;;;;;;8.88;8.07;;;17.20;99.90;;;;;;4997551;28;20184;-87
2022/05/13 05:33:04;;;;;;;12.00;8.88;;;17.20;99.90;;;;;;4998279;28;20179;-87
2022/05/13 05:35:30;;;;;;;9.30;8.32;;;17.20;99.90;;;;;;4998172;28;20235;-87
2022/05/13 05:37:56;;;;;;;9.30;8.50;;;17.20;99.90;;;;;;4998065;28;20214;-87
2022/05/13 05:40:22;;;;;;;9.07;8.20;;;17.20;99.90;;;;;;5014125;28;20179;-88
2022/05/13 05:42:51;;;;;;;9.68;8.82;;;17.20;99.90;;;;;;4998439;28;20219;-87
2022/05/13 05:45:20;;;;;;;8.83;8.03;;;17.30;99.90;;;;;;4995716;28;20202;-87
2022/05/13 05:47:53;;;;;;;10.82;8.57;;;17.40;99.90;;;;;;4997144;28;20176;-90
2022/05/13 05:50:27;;;;;;;9.25;8.45;;;17.40;99.90;;;;;;5013876;28;20632;-87
2022/05/13 05:52:54;;;;;;;9.35;7.32;;;17.40;99.90;;;;;;4997802;28;20206;-88
2022/05/13 05:58:11;;;;;;;8.73;7.90;;;17.40;99.90;;;;;;5014167;28;20179;-88
2022/05/13 06:00:39;;;;;;;9.57;7.75;;;17.40;99.90;;;;;;4996971;28;20214;-88
2022/05/13 06:03:06;;;;;;;9.20;8.30;;;17.40;99.90;;;;;;4997464;28;20230;-88
2022/05/13 06:05:32;;;;;;;7.70;6.97;;;17.40;99.90;;;;;;4997527;28;20207;-86
2022/05/13 06:08:01;;;;;;;8.27;7.47;;;17.40;99.90;;;;;;4997565;28;20245;-90
2022/05/13 06:10:28;;;;;;;9.82;8.20;;;17.40;99.90;;;;;;5000292;28;20222;-88
2022/05/13 06:12:56;;;;;;;9.57;7.68;;;17.40;99.90;;;;;;4999249;28;20203;-87
2022/05/13 06:15:24;;;;;;;7.53;6.13;;;17.40;99.90;;;;;;5001939;28;20471;-87
2022/05/13 06:18:35;;;;;;;8.73;6.10;;;17.30;99.90;;;;;;4998061;28;20646;-87
2022/05/13 06:21:05;;;;;;;6.40;5.80;;;17.30;99.90;;;;;;5001285;28;20181;-87
2022/05/13 06:23:33;;;;;;;6.88;5.93;;;17.30;99.90;;;;;;4997385;28;20233;-87
2022/05/13 06:26:01;;;;;;;9.98;6.07;;;17.30;99.90;;;;;;5016599;28;20201;-87
2022/05/13 06:28:28;;;;;;;7.53;6.53;;;17.30;99.90;;;;;;5016131;28;20233;-87
2022/05/13 06:30:55;;;;;;;8.68;6.38;;;17.30;99.90;;;;;;5015747;28;20228;-87
2022/05/13 06:33:54;;;;;;;7.25;6.50;;;17.20;99.90;;;;;;5032223;28;20186;-87
2022/05/13 06:36:20;;;;;;;10.18;6.70;;;17.20;99.90;;;;;;5016090;28;20202;-87
2022/05/13 06:38:47;;;;;;;10.27;5.82;;;17.00;99.90;;;;;;5015814;28;20184;-87
2022/05/13 06:41:13;;;;;;;6.90;4.73;;;16.90;99.90;;;;;;5009433;28;20198;-87
2022/05/13 06:43:39;;;;;;;7.22;4.85;;;16.80;99.90;;;;;;5012651;28;20250;-87
2022/05/13 06:46:05;;;;;;;8.45;4.53;;;16.80;99.90;;;;;;4995670;28;20199;-87
2022/05/13 06:48:31;;;;;;;5.93;4.30;;;16.80;99.90;;;;;;4996146;28;20183;-87
2022/05/13 06:50:57;;;;;;;5.80;4.35;;;16.80;99.90;;;;;;4996316;28;20234;-87
2022/05/13 06:53:23;;;;;;;6.47;4.50;;;16.80;99.90;;;;;;4996221;28;20186;-87
2022/05/13 06:55:50;;;;;;;5.80;4.32;;;16.80;99.90;;;;;;4996252;28;20230;-87
2022/05/13 06:58:16;;;;;;;7.43;4.57;;;16.80;99.90;;;;;;4996208;28;20190;-87
2022/05/13 07:00:43;;;;;;;10.70;4.67;;;16.90;99.90;;;;;;4995989;28;20183;-88
2022/05/13 07:03:14;;;;;;;6.13;3.85;;;16.90;99.90;;;;;;4996147;28;20218;-87
2022/05/13 07:05:40;;;;;;;9.13;4.40;;;16.90;99.90;;;;;;4995706;28;20565;-87
2022/05/13 07:08:07;;;;;;;10.05;4.05;;;17.00;99.90;;;;;;4996305;28;20183;-87
2022/05/13 07:10:32;;;;;;;7.53;4.28;;;17.10;99.90;;;;;;4995493;28;20209;-87
2022/05/13 07:12:58;;;;;;;5.05;3.90;;;17.20;99.90;;;;;;4995959;28;20179;-87
2022/05/13 07:15:24;;;;;;;6.68;3.65;;;17.30;99.90;;;;;;4995876;28;20304;-87
2022/05/13 07:17:50;;;;;;;6.25;3.88;;;17.30;99.90;;;;;;4995561;28;20562;-87
2022/05/13 07:20:16;;;;;;;6.25;3.80;;;17.40;99.90;;;;;;4995845;28;20178;-88
2022/05/13 07:22:42;;;;;;;5.43;3.88;;;17.50;99.90;;;;;;4995595;28;20210;-87
2022/05/13 07:25:08;;;;;;;5.97;3.72;;;17.60;99.90;;;;;;4996083;28;20195;-87
2022/05/13 07:27:35;;;;;;;7.45;3.83;;;17.60;99.90;;;;;;4995594;28;20180;-87
2022/05/13 07:30:01;;;;;;;7.82;3.53;;;17.60;99.90;;;;;;4995604;28;20224;-87
2022/05/13 07:32:27;;;;;;;8.80;3.78;;;17.60;99.90;;;;;;5011887;28;20263;-87
2022/05/13 07:34:54;;;;;;;6.53;3.65;;;17.60;99.90;;;;;;5012812;28;20270;-87
2022/05/13 07:37:20;;;;;;;6.78;4.18;;;17.60;99.90;;;;;;4995930;28;20175;-87
2022/05/13 07:42:30;;;;;;;6.85;4.03;;;17.60;99.90;;;;;;5013011;28;20211;-90
2022/05/13 07:44:56;;;;;;;6.35;3.70;;;17.60;99.90;;;;;;4996030;28;20206;-86
2022/05/13 07:47:22;;;;;;;9.80;3.80;;;17.50;99.90;;;;;;4995992;28;20183;-86
2022/05/13 07:49:48;;;;;;;5.05;3.55;;;17.50;99.90;;;;;;4995593;28;20171;-86
2022/05/13 07:52:14;;;;;;;4.38;3.63;;;17.50;99.90;;;;;;4995872;28;20205;-86
2022/05/13 07:54:41;;;;;;;6.90;3.72;;;17.50;99.90;;;;;;5000603;28;20198;-86
2022/05/13 07:57:07;;;;;;;7.55;3.55;;;17.50;99.90;;;;;;4999945;28;20213;-86
2022/05/13 08:00:24;;;;;;;6.20;4.03;;;17.50;99.90;;;;;;5000127;28;20195;-86
2022/05/13 08:02:20;;;;;;;5.45;3.97;;;17.60;99.90;;;;;;5016438;28;20207;-85
2022/05/13 08:04:46;;;;;;;6.80;3.95;;;17.60;99.90;;;;;;5000057;28;20185;-85
2022/05/13 08:07:12;;;;;;;4.20;3.47;;;17.60;99.90;;;;;;5002422;28;20175;-85
2022/05/13 08:10:29;;;;;;;7.57;3.40;;;17.60;99.90;;;;;;4998536;28;20187;-85
2022/05/13 08:12:54;;;;;;;6.28;3.97;;;17.60;99.90;;;;;;4998891;28;20195;-86
2022/05/13 08:15:20;;;;;;;4.75;3.20;;;17.60;99.90;;;;;;4999659;28;20203;-85
2022/05/13 08:17:53;;;;;;;6.10;3.67;;;17.50;99.90;;;;;;4999082;28;20199;-86
2022/05/13 08:20:20;;;;;;;6.47;3.60;;;17.50;99.90;;;;;;4999333;28;20187;-86
2022/05/13 08:22:45;;;;;;;4.97;3.30;;;17.50;99.90;;;;;;4999418;28;20202;-86
2022/05/13 08:25:18;;;;;;;5.57;3.85;;;17.50;99.90;;;;;;4998720;28;20261;-85
2022/05/13 08:27:44;;;;;;;5.68;4.25;;;17.60;99.90;;;;;;4998320;28;20179;-86
2022/05/13 08:30:12;;;;;;;4.72;4.22;;;17.70;99.90;;;;;;5014936;28;20179;-86
2022/05/13 08:32:39;;;;;;;7.55;4.15;;;17.70;99.90;;;;;;5000059;28;20290;-86
2022/05/13 08:35:07;;;;;;;9.25;4.50;;;17.70;99.90;;;;;;4998264;28;20256;-86
2022/05/13 08:37:42;;;;;;;8.60;4.90;;;17.60;99.90;;;;;;4998914;28;20258;-85
2022/05/13 08:40:43;;;;;;;6.30;4.30;;;17.60;99.90;;;;;;4998604;28;20485;-86
2022/05/13 08:43:35;;;;;;;7.57;4.72;;;17.60;99.90;;;;;;4997613;28;20680;-86
2022/05/13 08:46:33;;;;;;;8.18;4.85;;;17.60;99.90;;;;;;4998482;28;20253;-86
2022/05/13 08:49:18;;;;;;;7.03;4.60;;;17.50;99.90;;;;;;4997936;28;20186;-85
2022/05/13 08:52:00;;;;;;;6.95;4.80;;;17.50;99.90;;;;;;4997446;28;20194;-85
2022/05/13 08:54:38;;;;;;;6.13;4.50;;;17.50;99.90;;;;;;4997924;28;20182;-86
2022/05/13 08:57:13;;;;;;;6.93;3.63;;;17.50;99.90;;;;;;4997852;28;20270;-87
2022/05/13 09:00:13;;;;;;;9.27;4.00;;;17.50;99.90;;;;;;4997889;28;20182;-86
2022/05/13 09:03:03;;;;;;;5.73;3.47;;;17.50;99.90;;;;;;4997671;28;20225;-86
2022/05/13 09:06:05;;;;;;;4.68;3.22;;;17.60;99.90;;;;;;4993481;28;20214;-86
2022/05/13 09:08:34;;;;;;;6.05;3.47;;;17.60;99.90;;;;;;5013766;28;20183;-86
2022/05/13 09:11:32;;;;;;;6.57;3.30;;;17.60;99.90;;;;;;4997551;28;20285;-86
2022/05/13 09:14:27;;;;;;;6.72;3.38;;;17.60;99.90;;;;;;5013498;28;20179;-86
2022/05/13 09:17:25;;;;;;;8.15;4.18;;;17.60;99.90;;;;;;4998181;28;20199;-86
2022/05/13 09:20:30;;;;;;;7.32;3.45;;;17.60;99.90;;;;;;4998004;28;20172;-86
2022/05/13 09:22:58;;;;;;;8.10;4.25;;;17.60;99.90;;;;;;4981287;28;20282;-85
2022/05/13 09:26:09;;;;;;;4.95;3.75;;;17.70;99.90;;;;;;4997383;28;20286;-85
2022/05/13 09:28:37;;;;;;;8.45;4.10;;;17.80;99.90;;;;;;5014191;28;20176;-86
2022/05/13 09:31:32;;;;;;;7.78;4.32;;;17.80;99.90;;;;;;5013897;28;20206;-85
2022/05/13 09:33:59;;;;;;;6.05;4.32;;;17.70;99.90;;;;;;4993760;28;20226;-86
2022/05/13 09:36:27;;;;;;;6.45;4.47;;;17.60;99.90;;;;;;4997686;28;20195;-86
2022/05/13 09:38:53;;;;;;;8.00;4.43;;;17.50;99.90;;;;;;4996864;28;20226;-86
2022/05/13 09:41:39;;;;;;;4.97;4.18;;;17.50;99.90;;;;;;4997374;28;20219;-86
2022/05/13 09:44:21;;;;;;;8.15;4.70;;;17.50;99.90;;;;;;4997702;28;20190;-86
2022/05/13 09:47:24;;;;;;;9.30;5.75;;;17.50;99.90;;;;;;5013593;28;20249;-86
2022/05/13 09:49:52;;;;;;;7.90;4.35;;;17.50;99.90;;;;;;5013255;28;20185;-86
2022/05/13 09:52:33;;;;;;;9.20;4.35;;;17.50;99.90;;;;;;4997036;28;20187;-86
2022/05/13 09:55:20;;;;;;;16.35;4.07;;;17.70;99.90;;;;;;4997029;28;20270;-87
2022/05/13 09:57:50;;;;;;;6.05;3.85;;;17.80;99.90;;;;;;4997348;28;20179;-86
2022/05/13 10:00:22;;;;;;;7.63;4.30;;;17.90;99.90;;;;;;4997174;28;20187;-87
2022/05/13 10:03:04;;;;;;;7.13;4.15;;;18.00;99.90;;;;;;4996895;28;20326;-86
2022/05/13 10:05:32;;;;;;;4.43;3.92;;;18.20;99.90;;;;;;4996860;28;20198;-87
2022/05/13 10:08:09;;;;;;;9.40;4.13;;;18.40;99.90;;;;;;4996789;28;20179;-87
2022/05/13 10:16:18;;;;;;;7.38;3.50;;;18.90;99.90;;;;;;5011935;28;20203;-87
2022/05/13 10:19:23;;;;;;;6.93;3.40;;;19.00;99.90;;;;;;4996377;28;20180;-85
2022/05/13 10:22:05;;;;;;;7.88;3.10;;;19.20;99.90;;;;;;4996147;28;20219;-86
2022/05/13 10:25:08;;;;;;;8.57;2.67;;;19.30;99.90;;;;;;4996558;28;20278;-85
2022/05/13 10:27:40;;;;;;;5.47;2.70;;;19.60;99.90;;;;;;4997164;28;20183;-85
2022/05/13 10:30:11;;;;;;;7.25;2.88;;;20.00;99.90;;;;;;4997015;28;20183;-86
2022/05/13 10:32:59;;;;;;;4.13;2.80;;;20.20;99.90;;;;;;5013012;28;20266;-86
2022/05/13 10:35:32;;;;;;;5.40;2.95;;;20.30;99.90;;;;;;4997064;28;20203;-86
2022/05/13 10:38:36;;;;;;;7.78;2.95;;;20.30;99.90;;;;;;5108845;27;20539;-33
2022/05/13 10:41:21;;;;;;;6.93;2.90;;;20.30;99.90;;;;;;5090318;28;20272;-32
2022/05/13 10:43:57;;;;;;;3.85;2.22;;;20.40;99.90;;;;;;5090363;28;20227;-33
2022/05/13 10:46:37;;;;;;;7.32;2.65;;;20.30;99.90;;;;;;5090458;28;20210;-32
2022/05/13 10:49:03;;;;;;;5.30;2.63;;;20.30;99.90;;;;;;5090976;28;20176;-33
2022/05/13 10:51:40;;;;;;;6.18;3.00;;;20.00;99.90;;;;;;5073619;28;20228;-32
2022/05/13 10:54:43;;;;;;;5.80;2.65;;;20.00;99.90;;;;;;5073479;28;20227;-42
2022/05/13 10:57:23;;;;;;;7.45;2.80;;;19.80;99.90;;;;;;5073619;28;20299;-42
2022/05/13 11:00:14;;;;;;;6.00;2.65;;;19.60;99.90;;;;;;5090206;28;20225;-43
2022/05/13 11:02:42;;;;;;;3.47;2.80;;;19.50;99.90;;;;;;5073727;28;20199;-42
2022/05/13 11:05:38;;;;;;;5.80;2.55;;;19.40;99.90;;;;;;5073289;28;20195;-42
2022/05/13 11:08:39;;;;;;;6.57;2.85;;;19.50;99.90;;;;;;5089926;28;20180;-42
2022/05/13 11:11:31;;;;;;;4.68;2.63;;;19.60;99.90;;;;;;5072108;28;20172;-42
2022/05/13 11:14:09;;;;;;;8.00;3.42;;;19.60;99.90;;;;;;5088871;28;20271;-42
2022/05/13 11:16:38;;;;;;;5.53;2.40;;;19.70;99.90;;;;;;5089250;28;20211;-42
2022/05/13 11:19:09;;;;;;;6.45;2.92;;;19.80;99.90;;;;;;5088981;28;20176;-41
2022/05/13 11:21:35;;;;;;;4.72;3.03;;;19.90;99.90;;;;;;5089211;28;20176;-42
2022/05/13 11:27:24;;;;;;;5.80;3.00;;;20.20;99.90;;;;;;5107509;28;20269;-40
2022/05/13 11:30:08;;;;;;;6.85;2.60;;;20.20;99.90;;;;;;5107358;28;20229;-42
2022/05/13 11:32:37;;;;;;;9.32;3.58;;;20.40;99.90;;;;;;5103115;28;20172;-41
2022/05/13 11:35:38;;;;;;;6.03;2.78;;;20.40;99.90;;;;;;5075115;28;20200;-42
2022/05/13 11:38:17;;;;;;;7.88;2.80;;;20.40;99.90;;;;;;5082748;28;20211;-43
2022/05/13 11:41:08;;;;;;;6.32;3.03;;;20.60;99.90;;;;;;5106440;28;20176;-42
2022/05/13 11:43:46;;;;;;;3.80;2.53;;;20.70;99.90;;;;;;5096801;28;20191;-43
2022/05/13 11:46:45;;;;;;;6.78;2.65;;;20.80;99.90;;;;;;5078161;28;20257;-42
2022/05/13 11:49:35;;;;;;;6.00;3.17;;;20.90;99.90;;;;;;5084051;28;20188;-42
2022/05/13 11:52:13;;;;;;;4.07;2.70;;;21.10;99.90;;;;;;5079161;28;20184;-42
2022/05/13 11:54:41;;;;;;;5.60;2.90;;;21.00;99.90;;;;;;5064844;28;20207;-42
2022/05/13 11:57:49;;;;;;;7.45;2.67;;;20.80;99.90;;;;;;5081817;28;20232;-41
2022/05/13 12:00:23;;;;;;;6.80;2.88;;;20.60;99.90;;;;;;5082580;28;20212;-42
2022/05/13 12:03:00;;;;;;;5.90;2.70;;;20.70;99.90;;;;;;5066500;28;20179;-42
2022/05/13 12:05:32;;;;;;;5.82;2.63;;;20.60;99.90;;;;;;5059104;28;20176;-42
2022/05/13 12:08:03;;;;;;;6.60;3.10;;;20.50;99.90;;;;;;5094933;28;20183;-42
2022/05/13 12:10:51;;;;;;;4.88;2.83;;;20.70;99.90;;;;;;5056644;28;20267;-42
2022/05/13 12:13:37;;;;;;;5.22;2.70;;;20.80;99.90;;;;;;5055443;28;20208;-42
2022/05/13 12:16:25;;;;;;;5.05;2.92;;;20.90;99.90;;;;;;5073860;28;20200;-42
2022/05/13 12:19:28;;;;;;;6.00;2.90;;;21.10;99.90;;;;;;5071946;28;20210;-42
2022/05/13 12:22:03;;;;;;;6.50;3.05;;;21.10;99.90;;;;;;5072614;28;20238;-42
2022/05/13 12:25:12;;;;;;;4.85;3.20;;;21.10;99.90;;;;;;5058125;28;20188;-42
2022/05/13 12:28:00;;;;;;;5.78;2.75;;;21.20;99.90;;;;;;5056443;28;20173;-42
2022/05/13 12:30:37;;;;;;;4.78;3.00;;;21.10;99.90;;;;;;5073894;28;20181;-41
2022/05/13 12:33:23;;;;;;;5.20;2.72;;;21.20;99.90;;;;;;5056763;28;20184;-40
2022/05/13 12:39:09;;;;;;;6.10;3.08;;;21.70;99.90;;;;;;5085685;28;20831;-42
2022/05/13 12:41:41;;;;;;;3.05;2.60;;;21.90;99.90;;;;;;5077929;28;20177;-42
2022/05/13 12:44:13;;;;;;;5.72;2.75;;;22.00;99.90;;;;;;5072194;28;20794;-42
2022/05/13 12:46:47;;;;;;;5.82;3.40;;;22.30;99.90;;;;;;5072198;28;20173;-42
2022/05/13 12:49:20;;;;;;;6.88;2.67;;;22.60;99.90;;;;;;5068842;28;20184;-42
2022/05/13 12:51:59;;;;;;;5.35;2.70;;;22.60;99.90;;;;;;5065677;28;20203;-42
2022/05/13 12:54:26;;;;;;;4.78;2.70;;;23.00;99.90;;;;;;5081960;28;20200;-42
2022/05/13 12:56:59;;;;;;;3.83;2.50;;;23.30;99.90;;;;;;5088709;28;20238;-43
2022/05/13 12:59:30;;;;;;;5.95;2.83;;;23.20;99.90;;;;;;5076432;28;20233;-42
2022/05/13 13:02:01;;;;;;;5.47;2.80;;;23.40;99.90;;;;;;5086795;28;20268;-42
2022/05/13 13:04:32;;;;;;;4.63;2.50;;;23.30;99.90;;;;;;5059459;28;20218;-42
2022/05/13 13:07:11;;;;;;;4.97;2.53;;;23.30;99.90;;;;;;5091676;28;20188;-41
2022/05/13 13:09:44;;;;;;;8.52;2.63;;;23.00;99.90;;;;;;5046590;28;20210;-42
2022/05/13 13:12:20;;;;;;;7.95;2.80;;;22.80;99.90;;;;;;5066880;28;20181;-42
2022/05/13 13:15:03;;;;;;;5.28;2.80;;;22.70;99.90;;;;;;5072118;28;20200;-42
2022/05/13 13:17:41;;;;;;;6.05;2.90;;;22.30;99.90;;;;;;5070873;28;20547;-43
2022/05/13 13:20:10;;;;;;;7.35;3.00;;;22.30;99.90;;;;;;5071055;28;20225;-43
2022/05/13 13:22:48;;;;;;;6.93;2.65;;;22.20;99.90;;;;;;5055615;28;20184;-41
2022/05/13 13:25:27;;;;;;;3.65;2.60;;;22.40;99.90;;;;;;5057404;28;20196;-43
2022/05/13 13:27:57;;;;;;;5.30;3.00;;;22.60;99.90;;;;;;5071431;28;20212;-42
2022/05/13 13:30:25;;;;;;;5.95;3.33;;;22.40;99.90;;;;;;5088393;28;20226;-42
2022/05/13 13:32:53;;;;;;;4.90;3.13;;;22.30;99.90;;;;;;5070566;28;20181;-42
2022/05/13 13:35:36;;;;;;;5.43;3.00;;;21.90;99.90;;;;;;5054216;28;20211;-42
2022/05/13 13:38:04;;;;;;;5.90;2.88;;;21.90;99.90;;;;;;5070676;28;20200;-43
2022/05/13 13:40:39;;;;;;;5.93;3.00;;;22.10;99.90;;;;;;5053274;28;20176;-42
2022/05/13 13:43:17;;;;;;;6.20;3.20;;;22.00;99.90;;;;;;5069942;28;20254;-43